Atlanta, Georgia
Traffic Map
Current Weather Conditions
Atlanta, Georgia
Overcast
Overcast
50°
Feels Like: 50°
Wind Chill: 50° Ceiling: 14000
Heat Index: 50° Visibility: 10mi
Dew Point: 27° Wind: 10mph
Humidity: 41% Direction: 110° (ESE)
Pressure: 30.28in Gusts: 0mph
Raw Report DataKATL 271352Z 11009KT 10SM OVC140 10/M03 A3028 RMK AO2 SLP254 T01001028
Traffic Incident Summary
Active as of:
Severity:
Category:
InformationThere was an issue retrieving the traffic information for this location. Please try a different location or try again shortly.
Advertisements
Track Severe Weather on mobile